Time;durP1;ratioP1;P1;durP2;ratioP2;P2;SDS_P1;SDS_P2;PMS_P1;PMS_P2;Temp;Humidity;BMP_temperature;BMP_pressure;BME280_temperature;BME280_humidity;BME280_pressure;Samples;Min_cycle;Max_cycle;Signal;HPM_P1;HPM_P2
2022/08/30 00:03:18;;;;;;;25.95;15.50;;;;;;;21.51;93.97;99983.95;1725836;83;21248;-64
2022/08/30 00:05:45;;;;;;;25.02;15.80;;;;;;;21.50;93.55;99991.14;1725597;83;21035;-63
2022/08/30 00:08:12;;;;;;;23.70;15.18;;;;;;;21.47;94.16;99986.06;1725856;83;21189;-64
2022/08/30 00:10:41;;;;;;;22.73;15.53;;;;;;;21.43;95.70;99987.30;1725613;83;21122;-65
2022/08/30 00:13:11;;;;;;;28.10;15.85;;;;;;;21.44;94.61;99987.67;1725961;83;21103;-65
2022/08/30 00:15:39;;;;;;;20.45;14.60;;;;;;;21.42;95.30;99989.62;1725837;83;21117;-64
2022/08/30 00:18:06;;;;;;;19.07;15.13;;;;;;;21.43;96.10;99985.95;1725851;83;21067;-64
2022/08/30 00:20:34;;;;;;;25.15;14.78;;;;;;;21.45;96.41;99984.00;1725875;83;21020;-65
2022/08/30 00:23:00;;;;;;;29.77;15.90;;;;;;;21.44;95.89;99986.80;1726101;83;21776;-64
2022/08/30 00:25:27;;;;;;;23.95;15.08;;;;;;;21.45;96.32;99986.67;1725931;83;21043;-66
2022/08/30 00:27:54;;;;;;;26.35;15.13;;;;;;;21.45;96.36;99987.17;1725941;83;21142;-63
2022/08/30 00:30:21;;;;;;;24.72;16.23;;;;;;;21.30;96.68;99986.59;1725970;83;21075;-63
2022/08/30 00:32:48;;;;;;;27.15;16.40;;;;;;;21.40;96.89;99986.22;1725969;83;21052;-63
2022/08/30 00:35:19;;;;;;;24.00;15.43;;;;;;;21.40;96.57;99984.02;1725749;83;20997;-63
2022/08/30 00:37:47;;;;;;;23.80;15.38;;;;;;;21.38;96.81;99984.97;1726039;83;22102;-64
2022/08/30 00:40:14;;;;;;;22.32;14.95;;;;;;;21.38;96.61;99982.79;1726047;83;21226;-64
2022/08/30 00:42:43;;;;;;;22.77;14.40;;;;;;;21.35;96.95;99984.40;1722508;83;21118;-64
2022/08/30 00:45:21;;;;;;;21.17;15.63;;;;;;;21.36;97.08;99991.44;1705998;83;21060;-65
2022/08/30 00:47:49;;;;;;;20.55;14.90;;;;;;;21.34;96.72;99988.04;1702641;84;22145;-64
2022/08/30 00:50:18;;;;;;;26.30;16.10;;;;;;;21.28;97.24;99989.88;1702446;84;21061;-65
2022/08/30 00:52:47;;;;;;;25.97;16.70;;;;;;;21.23;96.90;99988.09;1702917;84;21097;-64
2022/08/30 00:55:15;;;;;;;22.48;15.85;;;;;;;21.20;97.47;99987.86;1711735;83;21630;-64
2022/08/30 00:57:44;;;;;;;24.80;16.02;;;;;;;21.16;98.72;99990.42;1712708;83;21598;-64
2022/08/30 01:00:12;;;;;;;21.05;15.10;;;;;;;21.15;98.88;99990.92;1713178;83;21111;-65
2022/08/30 01:02:39;;;;;;;25.00;16.40;;;;;;;21.11;99.44;99993.48;1712694;83;21019;-65
2022/08/30 01:05:09;;;;;;;23.65;15.98;;;;;;;21.08;99.48;100000.45;1712499;82;22131;-64
2022/08/30 01:07:38;;;;;;;22.93;15.38;;;;;;;21.05;100.00;99998.50;1712918;82;21584;-65
2022/08/30 01:10:06;;;;;;;26.42;16.00;;;;;;;21.07;100.00;99992.06;1713127;82;21086;-65
2022/08/30 01:12:33;;;;;;;24.10;16.17;;;;;;;21.03;100.00;99997.80;1712839;83;21044;-65
2022/08/30 01:15:00;;;;;;;23.30;15.50;;;;;;;20.97;100.00;99993.78;1712920;82;21047;-63
2022/08/30 01:17:27;;;;;;;23.40;15.60;;;;;;;20.95;100.00;100006.45;1712979;82;21288;-63
2022/08/30 01:20:07;;;;;;;22.15;15.20;;;;;;;20.99;100.00;100011.08;1712780;83;22177;-65
2022/08/30 01:22:55;;;;;;;24.23;15.83;;;;;;;20.93;100.00;100012.41;1712603;83;21103;-64
2022/08/30 01:25:25;;;;;;;23.83;15.70;;;;;;;20.96;100.00;100012.18;1713017;82;21102;-65
2022/08/30 01:27:56;;;;;;;23.13;15.80;;;;;;;20.90;100.00;100012.18;1713123;83;21091;-65
2022/08/30 01:30:23;;;;;;;22.52;16.27;;;;;;;20.80;100.00;100010.37;1712575;82;21276;-64
2022/08/30 01:32:51;;;;;;;22.93;15.60;;;;;;;20.84;100.00;100002.45;1713030;82;21028;-64
2022/08/30 01:35:19;;;;;;;21.23;15.25;;;;;;;20.79;100.00;100012.20;1702596;83;21059;-66
2022/08/30 01:37:46;;;;;;;22.90;16.48;;;;;;;20.76;100.00;100007.61;1712811;82;21079;-65
2022/08/30 01:40:14;;;;;;;23.22;15.25;;;;;;;20.69;100.00;100006.76;1712745;83;21528;-65
2022/08/30 01:42:41;;;;;;;27.42;17.17;;;;;;;20.62;100.00;100004.71;1712605;82;22159;-64
2022/08/30 01:45:08;;;;;;;25.37;16.55;;;;;;;20.58;100.00;99998.75;1712856;82;21059;-63
2022/08/30 01:47:35;;;;;;;26.02;15.75;;;;;;;20.56;100.00;99994.00;1712887;82;21072;-64
2022/08/30 01:50:03;;;;;;;22.80;15.32;;;;;;;20.54;100.00;99994.58;1712947;82;21107;-64
2022/08/30 01:52:30;;;;;;;21.48;15.70;;;;;;;20.51;100.00;99994.84;1713379;82;21618;-65
2022/08/30 01:54:57;;;;;;;20.72;15.90;;;;;;;20.58;100.00;99996.08;1705050;83;21169;-64
2022/08/30 01:57:25;;;;;;;22.42;15.08;;;;;;;20.45;100.00;100000.67;1702551;84;21070;-65
2022/08/30 01:59:53;;;;;;;21.87;15.85;;;;;;;20.36;100.00;100001.41;1702552;84;21067;-64
2022/08/30 02:02:24;;;;;;;27.62;16.05;;;;;;;20.44;100.00;100001.66;1685338;83;21116;-64
2022/08/30 02:04:53;;;;;;;21.45;15.65;;;;;;;20.41;100.00;100000.58;1684293;83;21105;-63
2022/08/30 02:07:22;;;;;;;25.95;16.42;;;;;;;20.44;100.00;100008.34;1684272;85;21241;-64
2022/08/30 02:09:51;;;;;;;26.50;16.52;;;;;;;20.36;100.00;100006.76;1684352;84;21396;-63
2022/08/30 02:12:17;;;;;;;26.10;16.65;;;;;;;20.22;100.00;100016.75;1684210;85;21023;-64
2022/08/30 02:14:44;;;;;;;27.85;16.17;;;;;;;20.27;100.00;100011.04;1684107;84;21045;-65
2022/08/30 02:17:12;;;;;;;24.45;16.48;;;;;;;20.27;100.00;100013.22;1684114;84;21041;-64
2022/08/30 02:19:39;;;;;;;27.17;17.12;;;;;;;20.21;100.00;100013.70;1683970;85;21834;-65
2022/08/30 02:22:07;;;;;;;26.48;17.23;;;;;;;20.15;100.00;100009.31;1684174;84;21621;-65
2022/08/30 02:24:34;;;;;;;25.65;17.20;;;;;;;20.11;100.00;100020.75;1684189;84;21057;-67
2022/08/30 02:27:01;;;;;;;27.27;18.50;;;;;;;20.11;100.00;100012.73;1684668;85;21565;-64
2022/08/30 02:29:28;;;;;;;28.65;17.90;;;;;;;20.01;100.00;100015.25;1684486;85;21568;-67
2022/08/30 02:31:55;;;;;;;26.30;17.80;;;;;;;19.94;100.00;100012.70;1684343;84;21221;-67
2022/08/30 02:34:21;;;;;;;24.82;16.95;;;;;;;19.91;100.00;100016.47;1684159;84;21049;-64
2022/08/30 02:36:48;;;;;;;25.82;18.42;;;;;;;19.94;100.00;100019.87;1684301;85;21061;-63
2022/08/30 02:39:14;;;;;;;25.60;17.07;;;;;;;20.01;100.00;100025.09;1684283;84;21093;-67
2022/08/30 02:41:41;;;;;;;25.68;17.90;;;;;;;20.00;100.00;100024.75;1684286;84;21576;-65
2022/08/30 02:44:08;;;;;;;27.87;17.77;;;;;;;19.98;100.00;100024.02;1690062;84;21206;-65
2022/08/30 02:46:35;;;;;;;26.48;18.42;;;;;;;19.99;100.00;100031.05;1696767;84;21107;-64
2022/08/30 02:49:02;;;;;;;24.40;18.17;;;;;;;19.89;100.00;100031.77;1696445;84;21100;-64
2022/08/30 02:51:28;;;;;;;26.87;17.98;;;;;;;19.81;100.00;100036.87;1696684;84;20989;-66
2022/08/30 02:53:55;;;;;;;26.23;17.90;;;;;;;19.79;100.00;100044.14;1706286;83;21181;-63
2022/08/30 02:56:23;;;;;;;23.87;16.67;;;;;;;19.76;100.00;100042.18;1725800;83;21559;-68
2022/08/30 02:58:50;;;;;;;22.48;17.23;;;;;;;19.75;100.00;100047.17;1725756;83;21035;-64
2022/08/30 03:01:17;;;;;;;25.15;17.90;;;;;;;19.68;100.00;100049.42;1711253;83;21017;-64
2022/08/30 03:03:45;;;;;;;27.85;18.50;;;;;;;19.64;100.00;100045.28;1696463;83;21108;-64
2022/08/30 03:06:13;;;;;;;28.38;17.57;;;;;;;19.61;100.00;100054.87;1697014;84;21045;-64
2022/08/30 03:08:40;;;;;;;25.23;17.75;;;;;;;19.56;100.00;100049.03;1696718;84;21159;-64
2022/08/30 03:11:08;;;;;;;29.98;18.62;;;;;;;19.57;100.00;100050.72;1696577;84;21025;-65
2022/08/30 03:13:35;;;;;;;29.30;18.15;;;;;;;19.53;100.00;100053.25;1696940;84;21040;-65
2022/08/30 03:16:02;;;;;;;27.50;18.52;;;;;;;19.47;100.00;100054.09;1696736;84;21509;-66
2022/08/30 03:18:29;;;;;;;26.00;18.23;;;;;;;19.46;100.00;100055.07;1696706;84;21016;-66
2022/08/30 03:20:56;;;;;;;27.35;17.82;;;;;;;19.43;100.00;100053.94;1696929;84;21500;-64
2022/08/30 03:23:23;;;;;;;25.80;17.77;;;;;;;19.25;100.00;100053.49;1696694;84;21081;-65
2022/08/30 03:25:50;;;;;;;26.52;17.73;;;;;;;19.20;100.00;100059.67;1696764;84;21101;-64
2022/08/30 03:28:17;;;;;;;23.83;17.65;;;;;;;19.30;100.00;100055.82;1696759;84;21045;-64
2022/08/30 03:30:43;;;;;;;22.05;16.62;;;;;;;19.32;100.00;100056.56;1696906;84;21084;-64
2022/08/30 03:33:10;;;;;;;19.70;16.17;;;;;;;19.31;100.00;100066.89;1696836;84;21242;-65
2022/08/30 03:35:37;;;;;;;24.80;17.10;;;;;;;19.44;100.00;100069.48;1696741;84;22475;-66
2022/08/30 03:38:05;;;;;;;23.00;16.30;;;;;;;19.59;100.00;100064.81;1696987;84;21076;-64
2022/08/30 03:40:32;;;;;;;27.42;18.15;;;;;;;19.77;100.00;100072.80;1696682;84;21083;-64
2022/08/30 03:42:59;;;;;;;23.77;15.75;;;;;;;19.94;100.00;100071.98;1696959;84;21571;-66
2022/08/30 03:45:25;;;;;;;20.45;15.18;;;;;;;20.16;100.00;100072.03;1696684;84;21217;-64
2022/08/30 03:47:52;;;;;;;21.97;15.75;;;;;;;20.35;100.00;100069.25;1697096;84;21572;-65
2022/08/30 03:50:19;;;;;;;21.73;15.63;;;;;;;20.57;100.00;100071.97;1696790;84;21093;-65
2022/08/30 03:52:46;;;;;;;21.52;15.03;;;;;;;20.80;100.00;100075.47;1696975;84;21105;-63
2022/08/30 03:55:13;;;;;;;22.15;15.25;;;;;;;21.05;100.00;100073.00;1722072;83;21169;-63
2022/08/30 03:57:41;;;;;;;18.35;13.88;;;;;;;21.28;100.00;100075.13;1725921;81;21139;-65
2022/08/30 04:00:09;;;;;;;25.20;14.38;;;;;;;21.57;100.00;100083.42;1725612;83;21037;-66
2022/08/30 04:02:39;;;;;;;18.98;13.50;;;;;;;21.82;100.00;100084.05;1725638;81;21488;-65
2022/08/30 04:05:09;;;;;;;21.85;14.43;;;;;;;22.09;100.00;100085.36;1725727;83;21055;-66
2022/08/30 04:07:36;;;;;;;21.20;13.65;;;;;;;22.33;100.00;100085.94;1725421;83;21047;-65
2022/08/30 04:10:05;;;;;;;20.82;15.00;;;;;;;22.55;100.00;100089.44;1725548;83;21175;-63
2022/08/30 04:12:33;;;;;;;19.70;14.55;;;;;;;22.73;100.00;100097.22;1725233;83;21103;-64
2022/08/30 04:15:01;;;;;;;18.17;13.88;;;;;;;22.90;100.00;100094.86;1725714;83;21115;-64
2022/08/30 04:17:29;;;;;;;17.37;13.62;;;;;;;22.80;100.00;100100.20;1725638;83;21075;-65
2022/08/30 04:19:57;;;;;;;20.57;15.13;;;;;;;22.49;100.00;100103.39;1725907;83;21063;-65
2022/08/30 04:22:23;;;;;;;21.15;15.25;;;;;;;22.19;100.00;100102.34;1725655;83;21234;-65
2022/08/30 04:24:50;;;;;;;22.77;16.20;;;;;;;21.92;100.00;100110.41;1725629;83;21028;-64
2022/08/30 04:27:19;;;;;;;21.57;16.15;;;;;;;21.63;100.00;100113.39;1725644;83;21025;-65
2022/08/30 04:29:46;;;;;;;22.58;17.85;;;;;;;21.30;100.00;100107.11;1725797;83;21109;-64
2022/08/30 04:32:13;;;;;;;23.40;17.27;;;;;;;21.03;100.00;100118.28;1726095;82;21026;-66
2022/08/30 04:34:40;;;;;;;22.60;18.12;;;;;;;20.79;100.00;100122.42;1725702;82;21220;-64
2022/08/30 04:37:06;;;;;;;26.05;18.82;;;;;;;20.61;100.00;100124.23;1725895;83;21182;-65
2022/08/30 04:39:34;;;;;;;25.88;18.32;;;;;;;20.48;100.00;100122.16;1725589;83;21140;-64
2022/08/30 04:42:02;;;;;;;28.10;18.82;;;;;;;20.35;100.00;100127.59;1726263;83;21075;-64
2022/08/30 04:44:32;;;;;;;26.82;18.23;;;;;;;20.23;100.00;100122.72;1725854;83;21116;-65
2022/08/30 04:46:59;;;;;;;29.57;20.08;;;;;;;20.14;100.00;100130.11;1710187;83;21332;-65
2022/08/30 04:49:25;;;;;;;29.30;19.25;;;;;;;20.07;100.00;100126.22;1725757;82;21022;-65
2022/08/30 04:51:53;;;;;;;30.10;19.67;;;;;;;20.06;100.00;100125.83;1725824;82;21045;-65
2022/08/30 04:54:19;;;;;;;26.77;19.87;;;;;;;20.06;100.00;100131.17;1725709;82;21090;-65
2022/08/30 04:56:46;;;;;;;24.87;19.15;;;;;;;20.02;100.00;100126.56;1725753;81;21063;-65
2022/08/30 04:59:13;;;;;;;27.13;20.15;;;;;;;19.98;100.00;100120.23;1725855;83;21273;-64
2022/08/30 05:01:40;;;;;;;26.95;18.48;;;;;;;19.93;100.00;100130.44;1725361;81;22126;-64
2022/08/30 05:04:06;;;;;;;26.35;18.40;;;;;;;19.87;100.00;100133.91;1725623;83;21535;-64
2022/08/30 05:06:33;;;;;;;26.17;18.35;;;;;;;19.85;100.00;100137.22;1725873;83;21512;-65
2022/08/30 05:09:00;;;;;;;27.73;18.12;;;;;;;19.84;100.00;100131.48;1725617;83;21063;-65
2022/08/30 05:11:27;;;;;;;27.70;19.10;;;;;;;19.83;100.00;100133.80;1725647;83;21238;-66
2022/08/30 05:13:54;;;;;;;24.37;17.70;;;;;;;19.84;100.00;100136.83;1725712;83;21036;-65
2022/08/30 05:16:21;;;;;;;24.05;16.95;;;;;;;19.87;100.00;100135.25;1725536;83;21123;-67
2022/08/30 05:18:49;;;;;;;20.40;16.20;;;;;;;19.91;100.00;100134.05;1725532;83;21583;-66
2022/08/30 05:21:19;;;;;;;23.57;17.25;;;;;;;19.93;100.00;100131.28;1725981;83;21067;-66
2022/08/30 05:23:46;;;;;;;23.25;17.50;;;;;;;19.97;100.00;100130.54;1725449;83;21864;-71
2022/08/30 05:26:18;;;;;;;24.80;17.30;;;;;;;20.01;100.00;100128.01;1725943;83;21075;-67
2022/08/30 05:28:44;;;;;;;21.73;15.85;;;;;;;20.07;100.00;100135.56;1725328;83;21067;-65
2022/08/30 05:31:15;;;;;;;24.18;16.35;;;;;;;20.08;100.00;100127.91;1725988;83;21116;-65
2022/08/30 05:33:42;;;;;;;22.77;15.72;;;;;;;20.17;100.00;100129.87;1725573;83;21586;-66
2022/08/30 05:36:09;;;;;;;22.37;16.60;;;;;;;20.26;100.00;100125.15;1725973;83;21088;-67
2022/08/30 05:38:36;;;;;;;20.57;15.35;;;;;;;20.30;100.00;100130.62;1725626;83;21139;-66
2022/08/30 05:41:03;;;;;;;20.65;15.23;;;;;;;20.41;100.00;100127.63;1725587;83;21052;-64
2022/08/30 05:43:30;;;;;;;21.75;14.95;;;;;;;20.50;100.00;100120.21;1725998;83;21726;-64
2022/08/30 05:46:04;;;;;;;24.52;15.35;;;;;;;20.61;100.00;100120.72;1719984;83;21349;-65
2022/08/30 05:48:31;;;;;;;17.73;13.75;;;;;;;20.67;100.00;100123.76;1718682;83;21855;-64
2022/08/30 05:51:11;;;;;;;17.82;13.53;;;;;;;20.79;100.00;100124.60;1718340;83;21040;-66
2022/08/30 05:53:38;;;;;;;15.32;12.18;;;;;;;20.94;100.00;100127.89;1718328;83;21067;-65
2022/08/30 05:56:08;;;;;;;14.98;11.83;;;;;;;21.14;100.00;100123.58;1718288;83;21055;-66
2022/08/30 05:58:34;;;;;;;15.10;11.10;;;;;;;21.26;100.00;100120.42;1718612;82;21095;-65
2022/08/30 06:01:02;;;;;;;12.37;10.20;;;;;;;21.38;100.00;100118.06;1718169;83;21241;-65
2022/08/30 06:03:28;;;;;;;15.78;11.12;;;;;;;21.52;100.00;100122.31;1718471;83;21107;-65
2022/08/30 06:05:55;;;;;;;15.98;10.78;;;;;;;21.62;100.00;100125.07;1718374;83;21075;-65
2022/08/30 06:08:21;;;;;;;14.20;10.15;;;;;;;21.76;100.00;100116.72;1718471;82;21555;-65
2022/08/30 06:10:48;;;;;;;13.32;9.48;;;;;;;22.18;100.00;100119.44;1718168;82;21579;-66
2022/08/30 06:13:14;;;;;;;16.50;9.43;;;;;;;22.90;100.00;100115.00;1718358;83;21235;-65
2022/08/30 06:15:43;;;;;;;12.28;9.15;;;;;;;23.81;97.49;100117.08;1718253;83;21055;-65
2022/08/30 06:18:11;;;;;;;12.37;8.35;;;;;;;24.68;92.93;100106.63;1718222;83;21039;-67
2022/08/30 06:20:41;;;;;;;10.32;7.78;;;;;;;25.55;86.89;100107.98;1717903;83;21555;-66
2022/08/30 06:23:09;;;;;;;8.45;7.00;;;;;;;26.31;80.16;100107.94;1717734;83;21050;-66
2022/08/30 06:25:37;;;;;;;9.48;7.20;;;;;;;26.93;77.52;100102.37;1718406;83;21798;-65
2022/08/30 06:28:05;;;;;;;9.85;6.65;;;;;;;27.57;74.35;100098.66;1718314;83;20998;-65
2022/08/30 06:30:33;;;;;;;7.85;6.17;;;;;;;28.23;73.05;100103.06;1718109;83;21102;-66
2022/08/30 06:32:59;;;;;;;8.70;5.70;;;;;;;29.33;64.95;100099.61;1718235;83;21102;-64
2022/08/30 06:35:27;;;;;;;6.58;5.87;;;;;;;29.33;64.95;100099.61;1718275;83;21050;-66
2022/08/30 06:37:55;;;;;;;7.15;5.30;;;;;;;29.68;61.17;100096.02;1718335;83;21889;-67
2022/08/30 06:40:22;;;;;;;7.67;5.30;;;;;;;30.08;58.84;100095.32;1718097;83;21046;-65
2022/08/30 06:42:49;;;;;;;5.30;4.42;;;;;;;30.26;52.07;100094.98;1718079;83;21642;-65
2022/08/30 06:45:19;;;;;;;6.78;5.15;;;;;;;30.36;50.43;100104.23;1716046;82;21611;-66
2022/08/30 06:47:46;;;;;;;6.22;4.67;;;;;;;30.43;50.36;100094.31;1713004;83;21372;-65
2022/08/30 06:50:14;;;;;;;9.00;5.15;;;;;;;30.79;49.91;100100.35;1712748;83;21224;-66
2022/08/30 06:52:42;;;;;;;7.00;4.95;;;;;;;31.19;48.24;100103.58;1713050;83;21044;-66
2022/08/30 06:55:14;;;;;;;5.58;4.53;;;;;;;31.22;47.77;100100.47;1704218;82;21049;-65
2022/08/30 06:57:40;;;;;;;11.75;5.00;;;;;;;31.09;46.89;100110.16;1702817;84;21099;-64
2022/08/30 07:00:09;;;;;;;6.30;4.60;;;;;;;30.97;47.41;100111.70;1702454;84;21049;-66
2022/08/30 07:02:36;;;;;;;8.28;4.83;;;;;;;30.83;47.37;100107.08;1702532;84;21127;-66
2022/08/30 07:05:04;;;;;;;6.53;5.12;;;;;;;30.81;47.68;100101.01;1702785;84;21005;-65
2022/08/30 07:07:31;;;;;;;16.45;5.67;;;;;;;31.15;46.50;100101.25;1702586;83;21022;-65
2022/08/30 07:09:58;;;;;;;7.78;4.80;;;;;;;31.58;45.59;100098.27;1702460;84;21044;-65
2022/08/30 07:12:25;;;;;;;6.67;4.20;;;;;;;31.72;44.92;100096.82;1702786;84;21713;-64
2022/08/30 07:14:52;;;;;;;8.35;4.65;;;;;;;31.79;44.42;100102.33;1702361;84;22456;-66
2022/08/30 07:20:05;;;;;;;6.72;4.22;;;;;;;32.45;42.98;100098.46;1684226;85;21068;-65
2022/08/30 07:22:32;;;;;;;6.15;4.37;;;;;;;32.85;42.16;100101.42;1684585;84;21608;-65
2022/08/30 07:24:59;;;;;;;4.37;3.98;;;;;;;33.15;41.47;100100.12;1684528;84;21053;-65
2022/08/30 07:27:25;;;;;;;5.25;4.05;;;;;;;32.92;40.31;100107.73;1684591;84;21239;-66
2022/08/30 07:29:52;;;;;;;7.50;4.00;;;;;;;32.91;41.23;100107.44;1684301;85;21062;-67
2022/08/30 07:32:19;;;;;;;6.20;3.95;;;;;;;33.06;40.33;100102.71;1684476;85;21545;-67
2022/08/30 07:34:45;;;;;;;6.55;3.70;;;;;;;33.50;40.66;100101.34;1684421;85;21090;-66
2022/08/30 07:37:12;;;;;;;13.32;4.58;;;;;;;33.90;38.63;100100.03;1684409;85;21109;-66
2022/08/30 07:39:40;;;;;;;4.08;3.20;;;;;;;34.05;37.22;100100.67;1684587;85;21147;-65
2022/08/30 07:42:06;;;;;;;4.67;3.22;;;;;;;33.72;36.29;100103.38;1684508;84;21054;-67
2022/08/30 07:44:33;;;;;;;4.87;3.27;;;;;;;33.33;37.19;100110.95;1674373;85;21592;-66
2022/08/30 07:47:00;;;;;;;4.30;3.40;;;;;;;33.11;37.62;100104.30;1695741;84;21581;-67
2022/08/30 07:49:27;;;;;;;7.95;3.87;;;;;;;33.05;37.67;100102.38;1696984;84;21560;-65
2022/08/30 07:51:53;;;;;;;6.08;3.47;;;;;;;33.20;37.64;100103.59;1696587;83;21668;-65
2022/08/30 07:54:20;;;;;;;5.53;3.10;;;;;;;32.84;37.71;100105.20;1711370;83;21063;-65
2022/08/30 07:56:47;;;;;;;4.55;3.65;;;;;;;32.46;37.74;100111.87;1725895;81;21103;-67
2022/08/30 07:59:14;;;;;;;5.67;3.80;;;;;;;32.46;38.13;100113.76;1725951;83;21643;-65
2022/08/30 08:01:40;;;;;;;7.67;3.87;;;;;;;32.58;37.68;100113.05;1725717;83;21035;-66
2022/08/30 08:04:06;;;;;;;5.08;3.92;;;;;;;32.68;37.52;100118.13;1725817;83;21218;-66
2022/08/30 08:06:38;;;;;;;4.30;3.30;;;;;;;33.10;37.14;100110.78;1725511;83;21044;-65
2022/08/30 08:09:06;;;;;;;3.95;3.25;;;;;;;33.14;36.18;100107.97;1725888;83;21642;-65
2022/08/30 08:11:34;;;;;;;4.72;3.10;;;;;;;33.15;35.64;100107.44;1726122;83;21547;-65
2022/08/30 08:14:03;;;;;;;7.20;3.15;;;;;;;33.16;35.70;100109.97;1725643;83;21086;-69
2022/08/30 08:16:32;;;;;;;8.53;3.60;;;;;;;33.21;35.87;100104.73;1725924;83;21203;-64
2022/08/30 08:18:58;;;;;;;6.25;3.27;;;;;;;33.53;35.15;100096.00;1725763;83;21052;-65
2022/08/30 08:21:26;;;;;;;7.03;3.17;;;;;;;33.58;34.57;100091.61;1725660;83;21024;-66
2022/08/30 08:23:53;;;;;;;6.25;3.20;;;;;;;33.44;34.75;100096.70;1725815;83;21067;-67
2022/08/30 08:26:19;;;;;;;6.97;3.05;;;;;;;33.16;35.05;100097.69;1726072;83;21135;-66
2022/08/30 08:28:46;;;;;;;5.78;3.00;;;;;;;33.20;35.47;100100.34;1725915;83;21913;-66
2022/08/30 08:31:23;;;;;;;4.95;2.87;;;;;;;33.50;35.03;100095.89;1725700;83;21031;-67
2022/08/30 08:33:49;;;;;;;4.25;3.22;;;;;;;33.82;33.50;100098.86;1725806;83;21071;-67
2022/08/30 08:36:17;;;;;;;4.90;2.87;;;;;;;33.71;33.76;100099.52;1725740;83;21055;-66
2022/08/30 08:38:44;;;;;;;3.92;3.25;;;;;;;33.61;33.87;100088.48;1725831;83;21131;-65
2022/08/30 08:41:31;;;;;;;6.50;3.00;;;;;;;33.70;33.64;100089.09;1725794;83;21256;-65
2022/08/30 08:43:58;;;;;;;7.65;2.90;;;;;;;34.02;33.42;100090.14;1725899;83;21059;-67
2022/08/30 08:46:37;;;;;;;4.67;2.72;;;;;;;33.89;32.19;100090.17;1713735;83;21584;-67
2022/08/30 08:49:05;;;;;;;5.67;3.02;;;;;;;33.43;32.58;100093.67;1702694;84;21052;-67
2022/08/30 08:54:37;;;;;;;5.08;2.77;;;;;;;33.70;32.08;100093.72;1708047;83;21980;-66
2022/08/30 08:57:04;;;;;;;2.92;2.60;;;;;;;33.99;31.85;100095.20;1713211;82;21114;-66
2022/08/30 08:59:32;;;;;;;4.17;2.95;;;;;;;34.34;31.05;100093.08;1713138;83;21047;-67
2022/08/30 09:02:01;;;;;;;5.05;2.83;;;;;;;34.23;30.49;100088.27;1713255;83;21551;-66
2022/08/30 09:04:33;;;;;;;5.08;2.90;;;;;;;33.95;30.98;100085.75;1713039;83;21103;-66
2022/08/30 09:07:07;;;;;;;5.28;2.85;;;;;;;33.51;30.56;100092.09;1712975;83;21229;-68
2022/08/30 09:09:37;;;;;;;6.65;3.25;;;;;;;33.47;31.99;100082.63;1712840;83;21031;-66
2022/08/30 09:12:05;;;;;;;7.28;3.15;;;;;;;33.56;31.98;100073.73;1713100;83;21591;-65
2022/08/30 09:14:36;;;;;;;5.87;2.80;;;;;;;33.69;31.40;100082.50;1712758;83;21083;-65
2022/08/30 09:17:08;;;;;;;4.72;2.70;;;;;;;33.63;29.87;100081.43;1713148;82;21056;-66
2022/08/30 09:19:58;;;;;;;5.50;2.70;;;;;;;33.11;30.38;100078.38;1712843;83;21886;-65
2022/08/30 09:22:34;;;;;;;4.03;2.40;;;;;;;32.15;31.46;100086.42;1712951;83;21031;-66
2022/08/30 09:25:22;;;;;;;4.20;2.65;;;;;;;32.03;32.18;100092.94;1713019;83;21095;-67
2022/08/30 09:27:51;;;;;;;6.05;3.10;;;;;;;32.17;32.34;100086.55;1712705;82;22129;-68
2022/08/30 09:30:27;;;;;;;7.95;2.60;;;;;;;32.40;32.29;100091.72;1712919;82;21103;-67
2022/08/30 09:32:56;;;;;;;3.35;2.70;;;;;;;32.47;30.76;100091.77;1713255;83;21119;-68
2022/08/30 09:35:37;;;;;;;4.85;2.75;;;;;;;32.49;30.43;100088.85;1712942;83;21504;-65
2022/08/30 09:38:13;;;;;;;;;;;;;;;32.26;30.42;100093.21;1686910;85;21040;-66
2022/08/30 09:40:44;;;;;;;6.95;2.47;;;;;;;32.20;29.29;100098.92;1684172;84;20177;-67
2022/08/30 09:43:16;;;;;;;;;;;;;;;32.24;28.87;100094.77;1687172;85;21034;-67
2022/08/30 09:45:47;;;;;;;6.45;2.40;;;;;;;32.26;29.50;100098.66;1696212;82;21154;-66
2022/08/30 09:48:39;;;;;;;6.40;2.62;;;;;;;32.28;29.95;100089.74;1712336;83;21066;-66
2022/08/30 09:51:15;;;;;;;4.92;2.55;;;;;;;32.47;29.86;100101.83;1712878;82;21034;-66
2022/08/30 09:54:17;;;;;;;4.75;2.70;;;;;;;32.55;29.52;100098.95;1710339;82;22073;-66
2022/08/30 09:56:55;;;;;;;4.97;2.52;;;;;;;32.65;29.11;100092.64;1698203;82;21079;-68
2022/08/30 09:59:54;;;;;;;4.50;2.40;;;;;;;33.02;28.64;100086.39;1702774;84;21482;-66
2022/08/30 10:03:08;;;;;;;4.12;2.70;;;;;;;32.93;27.57;100093.91;1702809;83;21604;-66
2022/08/30 10:05:44;;;;;;;3.52;2.35;;;;;;;32.79;28.93;100091.65;1702458;84;21092;-66
2022/08/30 10:08:54;;;;;;;4.40;2.25;;;;;;;32.86;28.85;100086.75;1702634;84;21048;-66
2022/08/30 10:11:39;;;;;;;11.48;2.60;;;;;;;32.68;29.07;100092.22;1694215;84;21077;-65
2022/08/30 10:14:44;;;;;;;6.33;2.60;;;;;;;32.52;29.31;100087.11;1702328;83;21230;-67
2022/08/30 10:17:43;;;;;;;4.92;2.17;;;;;;;32.43;29.64;100082.83;1702223;83;21092;-67
2022/08/30 10:20:44;;;;;;;6.33;2.60;;;;;;;32.68;29.67;100087.30;1701827;84;21060;-66
2022/08/30 10:23:20;;;;;;;8.05;2.90;;;;;;;32.83;29.77;100084.41;1702589;84;21061;-67
2022/08/30 10:25:53;;;;;;;5.80;2.98;;;;;;;32.79;30.33;100081.27;1702343;84;21135;-68
2022/08/30 10:28:40;;;;;;;4.95;2.58;;;;;;;32.94;30.26;100081.11;1702274;83;21151;-67
2022/08/30 10:31:31;;;;;;;3.87;2.62;;;;;;;33.22;29.60;100072.82;1702233;84;21067;-67
2022/08/30 10:34:06;;;;;;;6.35;2.60;;;;;;;33.41;29.27;100077.50;1702252;84;21048;-66
2022/08/30 10:36:47;;;;;;;6.10;2.30;;;;;;;33.32;29.58;100086.92;1702120;83;21041;-66
2022/08/30 10:39:18;;;;;;;5.47;2.52;;;;;;;33.33;29.28;100083.13;1702389;84;21613;-67
2022/08/30 10:41:56;;;;;;;5.53;2.80;;;;;;;33.52;29.40;100069.73;1702413;84;21510;-67
2022/08/30 10:44:29;;;;;;;4.75;2.80;;;;;;;33.82;29.26;100067.45;1702267;83;21060;-67
2022/08/30 10:47:10;;;;;;;5.62;2.90;;;;;;;34.13;29.21;100068.75;1709601;83;21015;-66
2022/08/30 10:49:44;;;;;;;3.55;2.40;;;;;;;34.48;28.65;100078.85;1718003;83;21012;-65
2022/08/30 10:52:36;;;;;;;3.08;2.47;;;;;;;34.61;28.02;100073.92;1718525;83;21107;-67
2022/08/30 10:55:28;;;;;;;3.50;2.33;;;;;;;34.67;27.72;100073.90;1718232;82;21230;-66
2022/08/30 10:58:01;;;;;;;6.05;2.20;;;;;;;34.54;26.99;100079.38;1717390;83;21066;-67
2022/08/30 11:01:56;;;;;;;3.55;2.47;;;;;;;34.74;27.69;100062.94;1795942;79;22535;-66
2022/08/30 11:04:59;;;;;;;4.87;2.40;;;;;;;34.63;27.58;100070.44;1756406;81;21055;-67
2022/08/30 11:07:51;;;;;;;2.85;2.37;;;;;;;34.53;27.41;100065.91;1756160;81;21228;-68
2022/08/30 11:10:49;;;;;;;3.52;2.25;;;;;;;34.25;27.25;100072.50;1756186;81;20983;-66
2022/08/30 11:13:28;;;;;;;3.87;2.37;;;;;;;34.14;27.87;100062.22;1756573;81;20973;-66
2022/08/30 11:16:08;;;;;;;3.87;2.22;;;;;;;34.10;27.91;100060.98;1756440;81;21070;-66
2022/08/30 11:18:50;;;;;;;3.90;2.02;;;;;;;33.94;27.44;100053.50;1756575;81;21569;-66
2022/08/30 11:21:36;;;;;;;7.58;2.08;;;;;;;33.61;26.61;100060.31;1756106;81;21210;-67
2022/08/30 11:24:23;;;;;;;2.30;1.95;;;;;;;33.37;27.46;100053.55;1756430;81;21526;-68
2022/08/30 11:26:56;;;;;;;4.12;2.35;;;;;;;33.43;28.49;100052.73;1756106;81;20992;-70
2022/08/30 11:29:39;;;;;;;3.85;2.50;;;;;;;33.48;28.37;100050.21;1756449;81;21088;-67
2022/08/30 11:32:20;;;;;;;3.70;2.17;;;;;;;33.46;28.27;100048.21;1756325;81;21029;-67
2022/08/30 11:34:57;;;;;;;2.95;1.95;;;;;;;33.62;27.96;100049.73;1761669;81;21521;-68
2022/08/30 11:37:38;;;;;;;8.43;2.30;;;;;;;33.70;27.86;100052.77;1755922;81;21081;-67
2022/08/30 11:40:23;;;;;;;4.78;2.37;;;;;;;33.90;27.92;100050.03;1755262;81;21509;-66